sensor_id;sensor_type;location;lat;lon;timestamp;temperature;humidity
13998;DHT22;7074;51.508;7.018;2022-08-01T00:02:22;21.80;99.90
13998;DHT22;7074;51.508;7.018;2022-08-01T00:04:49;21.80;99.90
13998;DHT22;7074;51.508;7.018;2022-08-01T00:07:16;21.80;99.90
13998;DHT22;7074;51.508;7.018;2022-08-01T00:09:43;21.80;99.90
13998;DHT22;7074;51.508;7.018;2022-08-01T00:12:11;21.80;99.90
13998;DHT22;7074;51.508;7.018;2022-08-01T00:14:38;21.80;99.90
13998;DHT22;7074;51.508;7.018;2022-08-01T00:17:05;21.80;99.90
13998;DHT22;7074;51.508;7.018;2022-08-01T00:19:34;21.70;99.90
13998;DHT22;7074;51.508;7.018;2022-08-01T00:22:02;21.80;99.90
13998;DHT22;7074;51.508;7.018;2022-08-01T00:24:29;21.80;99.90
13998;DHT22;7074;51.508;7.018;2022-08-01T00:26:56;21.70;99.90
13998;DHT22;7074;51.508;7.018;2022-08-01T00:29:23;21.70;99.90
13998;DHT22;7074;51.508;7.018;2022-08-01T00:31:50;21.70;99.90
13998;DHT22;7074;51.508;7.018;2022-08-01T00:34:18;21.70;99.90
13998;DHT22;7074;51.508;7.018;2022-08-01T00:36:46;21.70;99.90
13998;DHT22;7074;51.508;7.018;2022-08-01T00:39:14;21.70;99.90
13998;DHT22;7074;51.508;7.018;2022-08-01T00:41:41;21.70;99.90
13998;DHT22;7074;51.508;7.018;2022-08-01T00:44:08;21.70;99.90
13998;DHT22;7074;51.508;7.018;2022-08-01T00:46:35;21.70;99.90
13998;DHT22;7074;51.508;7.018;2022-08-01T00:49:03;21.70;99.90
13998;DHT22;7074;51.508;7.018;2022-08-01T00:51:31;21.80;99.90
13998;DHT22;7074;51.508;7.018;2022-08-01T00:54:00;21.80;99.90
13998;DHT22;7074;51.508;7.018;2022-08-01T00:56:27;21.80;99.90
13998;DHT22;7074;51.508;7.018;2022-08-01T00:58:55;21.80;99.90
13998;DHT22;7074;51.508;7.018;2022-08-01T01:01:22;21.80;99.90
13998;DHT22;7074;51.508;7.018;2022-08-01T01:03:51;21.80;99.90
13998;DHT22;7074;51.508;7.018;2022-08-01T01:06:25;21.70;99.90
13998;DHT22;7074;51.508;7.018;2022-08-01T01:09:05;21.70;99.90
13998;DHT22;7074;51.508;7.018;2022-08-01T01:11:44;21.70;99.90
13998;DHT22;7074;51.508;7.018;2022-08-01T01:14:26;21.70;99.90
13998;DHT22;7074;51.508;7.018;2022-08-01T01:16:55;21.80;99.90
13998;DHT22;7074;51.508;7.018;2022-08-01T01:19:28;21.80;99.90
13998;DHT22;7074;51.508;7.018;2022-08-01T01:22:25;21.80;99.90
13998;DHT22;7074;51.508;7.018;2022-08-01T01:25:22;21.80;99.90
13998;DHT22;7074;51.508;7.018;2022-08-01T01:28:02;21.80;99.90
13998;DHT22;7074;51.508;7.018;2022-08-01T01:30:33;21.80;99.90
13998;DHT22;7074;51.508;7.018;2022-08-01T01:33:03;21.80;99.90
13998;DHT22;7074;51.508;7.018;2022-08-01T01:35:35;21.80;99.90
13998;DHT22;7074;51.508;7.018;2022-08-01T01:38:07;21.70;99.90
13998;DHT22;7074;51.508;7.018;2022-08-01T01:40:36;21.70;99.90
13998;DHT22;7074;51.508;7.018;2022-08-01T01:43:09;21.70;99.90
13998;DHT22;7074;51.508;7.018;2022-08-01T01:45:39;21.70;99.90
13998;DHT22;7074;51.508;7.018;2022-08-01T01:48:07;21.70;99.90
13998;DHT22;7074;51.508;7.018;2022-08-01T01:50:37;21.70;99.90
13998;DHT22;7074;51.508;7.018;2022-08-01T01:53:05;21.80;99.90
13998;DHT22;7074;51.508;7.018;2022-08-01T01:55:34;21.70;99.90
13998;DHT22;7074;51.508;7.018;2022-08-01T01:58:02;21.80;99.90
13998;DHT22;7074;51.508;7.018;2022-08-01T02:00:31;21.80;99.90
13998;DHT22;7074;51.508;7.018;2022-08-01T02:03:01;21.80;99.90
13998;DHT22;7074;51.508;7.018;2022-08-01T02:05:30;21.80;99.90
13998;DHT22;7074;51.508;7.018;2022-08-01T02:08:01;21.70;99.90
13998;DHT22;7074;51.508;7.018;2022-08-01T02:10:30;21.70;99.90
13998;DHT22;7074;51.508;7.018;2022-08-01T02:12:59;21.70;99.90
13998;DHT22;7074;51.508;7.018;2022-08-01T02:15:30;21.70;99.90
13998;DHT22;7074;51.508;7.018;2022-08-01T02:18:01;21.70;99.90
13998;DHT22;7074;51.508;7.018;2022-08-01T02:20:29;21.80;99.90
13998;DHT22;7074;51.508;7.018;2022-08-01T02:23:01;21.60;99.90
13998;DHT22;7074;51.508;7.018;2022-08-01T02:25:33;21.70;99.90
13998;DHT22;7074;51.508;7.018;2022-08-01T02:28:05;21.60;99.90
13998;DHT22;7074;51.508;7.018;2022-08-01T02:30:36;21.60;99.90
13998;DHT22;7074;51.508;7.018;2022-08-01T02:33:12;21.60;99.90
13998;DHT22;7074;51.508;7.018;2022-08-01T02:35:43;21.50;99.90
13998;DHT22;7074;51.508;7.018;2022-08-01T02:38:13;21.60;99.90
13998;DHT22;7074;51.508;7.018;2022-08-01T02:40:43;21.50;99.90
13998;DHT22;7074;51.508;7.018;2022-08-01T02:43:15;21.50;99.90
13998;DHT22;7074;51.508;7.018;2022-08-01T02:45:49;21.50;99.90
13998;DHT22;7074;51.508;7.018;2022-08-01T02:48:21;21.50;99.90
13998;DHT22;7074;51.508;7.018;2022-08-01T02:50:52;21.50;99.90
13998;DHT22;7074;51.508;7.018;2022-08-01T02:53:23;21.50;99.90
13998;DHT22;7074;51.508;7.018;2022-08-01T02:55:52;21.50;99.90
13998;DHT22;7074;51.508;7.018;2022-08-01T02:58:21;21.50;99.90
13998;DHT22;7074;51.508;7.018;2022-08-01T03:00:51;21.50;99.90
13998;DHT22;7074;51.508;7.018;2022-08-01T03:03:20;21.50;99.90
13998;DHT22;7074;51.508;7.018;2022-08-01T03:05:49;21.50;99.90
13998;DHT22;7074;51.508;7.018;2022-08-01T03:08:17;21.50;99.90
13998;DHT22;7074;51.508;7.018;2022-08-01T03:10:46;21.60;99.90
13998;DHT22;7074;51.508;7.018;2022-08-01T03:13:14;21.60;99.90
13998;DHT22;7074;51.508;7.018;2022-08-01T03:15:43;21.60;99.90
13998;DHT22;7074;51.508;7.018;2022-08-01T03:18:12;21.60;99.90
13998;DHT22;7074;51.508;7.018;2022-08-01T03:20:42;21.50;99.90
13998;DHT22;7074;51.508;7.018;2022-08-01T03:23:11;21.50;99.90
13998;DHT22;7074;51.508;7.018;2022-08-01T03:25:41;21.50;99.90
13998;DHT22;7074;51.508;7.018;2022-08-01T03:28:13;21.50;99.90
13998;DHT22;7074;51.508;7.018;2022-08-01T03:30:41;21.60;99.90
13998;DHT22;7074;51.508;7.018;2022-08-01T03:33:09;21.60;99.90
13998;DHT22;7074;51.508;7.018;2022-08-01T03:35:39;21.70;99.90
13998;DHT22;7074;51.508;7.018;2022-08-01T03:38:12;21.60;99.90
13998;DHT22;7074;51.508;7.018;2022-08-01T03:40:43;21.60;99.90
13998;DHT22;7074;51.508;7.018;2022-08-01T03:43:13;21.60;99.90
13998;DHT22;7074;51.508;7.018;2022-08-01T03:45:48;21.70;99.90
13998;DHT22;7074;51.508;7.018;2022-08-01T03:48:17;21.70;99.90
13998;DHT22;7074;51.508;7.018;2022-08-01T03:50:48;21.80;99.90
13998;DHT22;7074;51.508;7.018;2022-08-01T03:53:22;21.70;99.90
13998;DHT22;7074;51.508;7.018;2022-08-01T03:55:50;21.80;99.90
13998;DHT22;7074;51.508;7.018;2022-08-01T03:58:18;21.80;99.90
13998;DHT22;7074;51.508;7.018;2022-08-01T04:00:45;21.70;99.90
13998;DHT22;7074;51.508;7.018;2022-08-01T04:03:13;21.70;99.90
13998;DHT22;7074;51.508;7.018;2022-08-01T04:05:41;21.70;99.90
13998;DHT22;7074;51.508;7.018;2022-08-01T04:08:09;21.70;99.90
13998;DHT22;7074;51.508;7.018;2022-08-01T04:10:38;21.70;99.90
13998;DHT22;7074;51.508;7.018;2022-08-01T04:13:05;21.70;99.90
13998;DHT22;7074;51.508;7.018;2022-08-01T04:15:32;21.70;99.90
13998;DHT22;7074;51.508;7.018;2022-08-01T04:18:00;21.70;99.90
13998;DHT22;7074;51.508;7.018;2022-08-01T04:20:27;21.70;99.90
13998;DHT22;7074;51.508;7.018;2022-08-01T04:22:54;21.70;99.90
13998;DHT22;7074;51.508;7.018;2022-08-01T04:25:25;21.70;99.90
13998;DHT22;7074;51.508;7.018;2022-08-01T04:28:01;21.60;99.90
13998;DHT22;7074;51.508;7.018;2022-08-01T04:30:33;21.60;99.90
13998;DHT22;7074;51.508;7.018;2022-08-01T04:33:04;21.60;99.90
13998;DHT22;7074;51.508;7.018;2022-08-01T04:35:33;21.60;99.90
13998;DHT22;7074;51.508;7.018;2022-08-01T04:38:01;21.60;99.90
13998;DHT22;7074;51.508;7.018;2022-08-01T04:40:29;21.60;99.90
13998;DHT22;7074;51.508;7.018;2022-08-01T04:42:57;21.50;99.90
13998;DHT22;7074;51.508;7.018;2022-08-01T04:45:26;21.60;99.90
13998;DHT22;7074;51.508;7.018;2022-08-01T04:47:56;21.50;99.90
13998;DHT22;7074;51.508;7.018;2022-08-01T04:50:25;21.50;99.90
13998;DHT22;7074;51.508;7.018;2022-08-01T04:52:53;21.50;99.90
13998;DHT22;7074;51.508;7.018;2022-08-01T04:55:20;21.50;99.90
13998;DHT22;7074;51.508;7.018;2022-08-01T04:57:47;21.50;99.90
13998;DHT22;7074;51.508;7.018;2022-08-01T05:00:15;21.50;99.90
13998;DHT22;7074;51.508;7.018;2022-08-01T05:02:44;21.30;99.90
13998;DHT22;7074;51.508;7.018;2022-08-01T05:05:12;21.50;99.90
13998;DHT22;7074;51.508;7.018;2022-08-01T05:07:40;21.40;99.90
13998;DHT22;7074;51.508;7.018;2022-08-01T05:10:08;21.50;99.90
13998;DHT22;7074;51.508;7.018;2022-08-01T05:12:36;21.50;99.90
13998;DHT22;7074;51.508;7.018;2022-08-01T05:15:04;21.50;99.90
13998;DHT22;7074;51.508;7.018;2022-08-01T05:17:32;21.60;99.90
13998;DHT22;7074;51.508;7.018;2022-08-01T05:20:01;21.60;99.90
13998;DHT22;7074;51.508;7.018;2022-08-01T05:22:28;21.60;99.90
13998;DHT22;7074;51.508;7.018;2022-08-01T05:24:55;21.70;99.90
13998;DHT22;7074;51.508;7.018;2022-08-01T05:27:23;21.60;99.90
13998;DHT22;7074;51.508;7.018;2022-08-01T05:29:50;21.70;99.90
13998;DHT22;7074;51.508;7.018;2022-08-01T05:32:17;21.70;99.90
13998;DHT22;7074;51.508;7.018;2022-08-01T05:34:45;21.70;99.90
13998;DHT22;7074;51.508;7.018;2022-08-01T05:37:13;21.70;99.90
13998;DHT22;7074;51.508;7.018;2022-08-01T05:39:41;21.70;99.90
13998;DHT22;7074;51.508;7.018;2022-08-01T05:42:08;21.70;99.90
13998;DHT22;7074;51.508;7.018;2022-08-01T05:44:35;21.60;99.90
13998;DHT22;7074;51.508;7.018;2022-08-01T05:47:03;21.70;99.90
13998;DHT22;7074;51.508;7.018;2022-08-01T05:49:30;21.70;99.90
13998;DHT22;7074;51.508;7.018;2022-08-01T05:51:58;21.60;99.90
13998;DHT22;7074;51.508;7.018;2022-08-01T05:54:28;21.70;99.90
13998;DHT22;7074;51.508;7.018;2022-08-01T05:56:55;21.70;99.90
13998;DHT22;7074;51.508;7.018;2022-08-01T05:59:25;21.60;99.90
13998;DHT22;7074;51.508;7.018;2022-08-01T06:01:52;21.50;99.90
13998;DHT22;7074;51.508;7.018;2022-08-01T06:04:20;21.60;99.90
13998;DHT22;7074;51.508;7.018;2022-08-01T06:06:47;21.60;99.90
13998;DHT22;7074;51.508;7.018;2022-08-01T06:09:14;21.60;99.90
13998;DHT22;7074;51.508;7.018;2022-08-01T06:11:43;21.60;99.90
13998;DHT22;7074;51.508;7.018;2022-08-01T06:14:11;21.70;99.90
13998;DHT22;7074;51.508;7.018;2022-08-01T06:16:38;21.80;99.90
13998;DHT22;7074;51.508;7.018;2022-08-01T06:19:05;21.90;99.90
13998;DHT22;7074;51.508;7.018;2022-08-01T06:21:33;21.90;99.90
13998;DHT22;7074;51.508;7.018;2022-08-01T06:24:00;21.80;99.90
13998;DHT22;7074;51.508;7.018;2022-08-01T06:26:27;21.80;99.90
13998;DHT22;7074;51.508;7.018;2022-08-01T06:28:56;21.80;99.90
13998;DHT22;7074;51.508;7.018;2022-08-01T06:31:23;21.90;99.90
13998;DHT22;7074;51.508;7.018;2022-08-01T06:33:51;21.90;99.90
13998;DHT22;7074;51.508;7.018;2022-08-01T06:36:18;21.70;99.90
13998;DHT22;7074;51.508;7.018;2022-08-01T06:38:45;21.90;99.90
13998;DHT22;7074;51.508;7.018;2022-08-01T06:41:13;21.90;99.90
13998;DHT22;7074;51.508;7.018;2022-08-01T06:43:40;22.00;99.90
13998;DHT22;7074;51.508;7.018;2022-08-01T06:46:09;22.10;99.90
13998;DHT22;7074;51.508;7.018;2022-08-01T06:48:36;22.20;99.90
13998;DHT22;7074;51.508;7.018;2022-08-01T06:51:05;22.30;99.90
13998;DHT22;7074;51.508;7.018;2022-08-01T06:53:35;22.50;99.90
13998;DHT22;7074;51.508;7.018;2022-08-01T06:56:04;22.50;99.90
13998;DHT22;7074;51.508;7.018;2022-08-01T06:58:31;22.70;99.90
13998;DHT22;7074;51.508;7.018;2022-08-01T07:01:00;22.80;99.90
13998;DHT22;7074;51.508;7.018;2022-08-01T07:03:29;22.90;99.90
13998;DHT22;7074;51.508;7.018;2022-08-01T07:05:56;23.00;99.90
13998;DHT22;7074;51.508;7.018;2022-08-01T07:08:23;23.00;99.90
13998;DHT22;7074;51.508;7.018;2022-08-01T07:10:51;23.00;99.90
13998;DHT22;7074;51.508;7.018;2022-08-01T07:13:18;23.10;99.90
13998;DHT22;7074;51.508;7.018;2022-08-01T07:15:51;23.10;99.90
13998;DHT22;7074;51.508;7.018;2022-08-01T07:18:19;23.20;99.90
13998;DHT22;7074;51.508;7.018;2022-08-01T07:20:48;23.30;99.90
13998;DHT22;7074;51.508;7.018;2022-08-01T07:23:15;23.20;99.90
13998;DHT22;7074;51.508;7.018;2022-08-01T07:25:43;23.10;99.90
13998;DHT22;7074;51.508;7.018;2022-08-01T07:28:10;23.10;99.90
13998;DHT22;7074;51.508;7.018;2022-08-01T07:30:37;23.10;99.90
13998;DHT22;7074;51.508;7.018;2022-08-01T07:33:08;23.30;99.90
13998;DHT22;7074;51.508;7.018;2022-08-01T07:35:35;23.30;99.90
13998;DHT22;7074;51.508;7.018;2022-08-01T07:38:05;23.30;99.90
13998;DHT22;7074;51.508;7.018;2022-08-01T07:40:33;23.40;99.90
13998;DHT22;7074;51.508;7.018;2022-08-01T07:43:00;23.30;99.90
13998;DHT22;7074;51.508;7.018;2022-08-01T07:45:28;23.50;99.90
13998;DHT22;7074;51.508;7.018;2022-08-01T07:47:56;23.60;99.90
13998;DHT22;7074;51.508;7.018;2022-08-01T07:50:23;23.40;99.90
13998;DHT22;7074;51.508;7.018;2022-08-01T07:52:51;23.80;99.90
13998;DHT22;7074;51.508;7.018;2022-08-01T07:55:20;23.90;99.90
13998;DHT22;7074;51.508;7.018;2022-08-01T07:57:47;24.00;99.90
13998;DHT22;7074;51.508;7.018;2022-08-01T08:00:15;24.20;99.90
13998;DHT22;7074;51.508;7.018;2022-08-01T08:02:43;24.20;99.90
13998;DHT22;7074;51.508;7.018;2022-08-01T08:05:10;24.20;99.90
13998;DHT22;7074;51.508;7.018;2022-08-01T08:07:38;24.30;99.90
13998;DHT22;7074;51.508;7.018;2022-08-01T08:10:06;24.30;99.90
13998;DHT22;7074;51.508;7.018;2022-08-01T08:12:35;24.40;99.90
13998;DHT22;7074;51.508;7.018;2022-08-01T08:15:03;24.50;99.90
13998;DHT22;7074;51.508;7.018;2022-08-01T08:17:31;24.60;99.90
13998;DHT22;7074;51.508;7.018;2022-08-01T08:19:59;24.70;99.90
13998;DHT22;7074;51.508;7.018;2022-08-01T08:22:27;24.70;99.90
13998;DHT22;7074;51.508;7.018;2022-08-01T08:24:55;24.60;99.90
13998;DHT22;7074;51.508;7.018;2022-08-01T08:27:22;24.40;99.90
13998;DHT22;7074;51.508;7.018;2022-08-01T08:29:51;24.20;99.90
13998;DHT22;7074;51.508;7.018;2022-08-01T08:32:19;24.10;99.90
13998;DHT22;7074;51.508;7.018;2022-08-01T08:34:47;24.10;99.90
13998;DHT22;7074;51.508;7.018;2022-08-01T08:37:14;24.30;99.90
13998;DHT22;7074;51.508;7.018;2022-08-01T08:39:42;24.40;99.90
13998;DHT22;7074;51.508;7.018;2022-08-01T08:42:11;24.60;99.90
13998;DHT22;7074;51.508;7.018;2022-08-01T08:44:39;24.70;99.90
13998;DHT22;7074;51.508;7.018;2022-08-01T08:47:11;24.80;99.90
13998;DHT22;7074;51.508;7.018;2022-08-01T08:49:39;24.60;99.90
13998;DHT22;7074;51.508;7.018;2022-08-01T08:52:09;24.50;99.90
13998;DHT22;7074;51.508;7.018;2022-08-01T08:54:37;24.40;99.90
13998;DHT22;7074;51.508;7.018;2022-08-01T08:57:05;24.30;99.90
13998;DHT22;7074;51.508;7.018;2022-08-01T08:59:32;24.40;99.90
13998;DHT22;7074;51.508;7.018;2022-08-01T09:02:00;24.60;99.90
13998;DHT22;7074;51.508;7.018;2022-08-01T09:04:29;24.70;99.90
13998;DHT22;7074;51.508;7.018;2022-08-01T09:06:57;25.00;99.90
13998;DHT22;7074;51.508;7.018;2022-08-01T09:09:24;25.30;99.90
13998;DHT22;7074;51.508;7.018;2022-08-01T09:11:54;25.50;99.90
13998;DHT22;7074;51.508;7.018;2022-08-01T09:14:22;25.60;99.90
13998;DHT22;7074;51.508;7.018;2022-08-01T09:17:00;25.70;99.90
13998;DHT22;7074;51.508;7.018;2022-08-01T09:19:37;25.60;99.90
13998;DHT22;7074;51.508;7.018;2022-08-01T09:22:05;25.50;99.90
13998;DHT22;7074;51.508;7.018;2022-08-01T09:24:33;25.50;99.90
13998;DHT22;7074;51.508;7.018;2022-08-01T09:27:15;25.60;99.90
13998;DHT22;7074;51.508;7.018;2022-08-01T09:29:43;25.80;99.90
13998;DHT22;7074;51.508;7.018;2022-08-01T09:32:11;25.90;99.90
13998;DHT22;7074;51.508;7.018;2022-08-01T09:34:40;25.50;99.90
13998;DHT22;7074;51.508;7.018;2022-08-01T09:37:07;25.60;99.90
13998;DHT22;7074;51.508;7.018;2022-08-01T09:39:36;25.40;99.90
13998;DHT22;7074;51.508;7.018;2022-08-01T09:42:20;25.40;99.90
13998;DHT22;7074;51.508;7.018;2022-08-01T09:44:49;25.70;99.90
13998;DHT22;7074;51.508;7.018;2022-08-01T09:47:18;25.90;99.90
13998;DHT22;7074;51.508;7.018;2022-08-01T09:49:55;25.80;99.90
13998;DHT22;7074;51.508;7.018;2022-08-01T09:52:24;26.00;99.90
13998;DHT22;7074;51.508;7.018;2022-08-01T09:54:53;26.00;99.90
13998;DHT22;7074;51.508;7.018;2022-08-01T09:57:21;25.80;99.90
13998;DHT22;7074;51.508;7.018;2022-08-01T09:59:50;25.70;99.90
13998;DHT22;7074;51.508;7.018;2022-08-01T10:02:28;25.50;99.90
13998;DHT22;7074;51.508;7.018;2022-08-01T10:04:57;25.30;99.90
13998;DHT22;7074;51.508;7.018;2022-08-01T10:07:24;25.20;99.90
13998;DHT22;7074;51.508;7.018;2022-08-01T10:09:52;25.40;99.90
13998;DHT22;7074;51.508;7.018;2022-08-01T10:12:21;25.00;99.90
13998;DHT22;7074;51.508;7.018;2022-08-01T10:14:50;25.10;99.90
13998;DHT22;7074;51.508;7.018;2022-08-01T10:17:23;25.00;99.90
13998;DHT22;7074;51.508;7.018;2022-08-01T10:20:09;24.90;99.90
13998;DHT22;7074;51.508;7.018;2022-08-01T10:22:38;24.70;99.90
13998;DHT22;7074;51.508;7.018;2022-08-01T10:25:11;24.40;99.90
13998;DHT22;7074;51.508;7.018;2022-08-01T10:27:48;24.40;99.90
13998;DHT22;7074;51.508;7.018;2022-08-01T10:30:17;24.30;99.90
13998;DHT22;7074;51.508;7.018;2022-08-01T10:32:46;24.30;99.90
13998;DHT22;7074;51.508;7.018;2022-08-01T10:35:15;24.60;99.90
13998;DHT22;7074;51.508;7.018;2022-08-01T10:37:45;24.70;99.90
13998;DHT22;7074;51.508;7.018;2022-08-01T10:40:13;25.00;99.90
13998;DHT22;7074;51.508;7.018;2022-08-01T10:42:42;24.90;99.90
13998;DHT22;7074;51.508;7.018;2022-08-01T10:45:11;25.00;99.90
13998;DHT22;7074;51.508;7.018;2022-08-01T10:47:45;25.10;99.90
13998;DHT22;7074;51.508;7.018;2022-08-01T10:50:21;25.20;99.90
13998;DHT22;7074;51.508;7.018;2022-08-01T10:53:08;25.10;99.90
13998;DHT22;7074;51.508;7.018;2022-08-01T10:55:46;24.80;99.90
13998;DHT22;7074;51.508;7.018;2022-08-01T10:58:19;24.90;99.90
13998;DHT22;7074;51.508;7.018;2022-08-01T11:00:46;24.80;99.90
13998;DHT22;7074;51.508;7.018;2022-08-01T11:03:13;24.80;99.90
13998;DHT22;7074;51.508;7.018;2022-08-01T11:05:43;24.70;99.90
13998;DHT22;7074;51.508;7.018;2022-08-01T11:08:21;24.60;99.90
13998;DHT22;7074;51.508;7.018;2022-08-01T11:10:59;24.60;99.90
13998;DHT22;7074;51.508;7.018;2022-08-01T11:14:01;24.80;99.90
13998;DHT22;7074;51.508;7.018;2022-08-01T11:16:33;24.50;99.90
13998;DHT22;7074;51.508;7.018;2022-08-01T11:19:02;24.50;99.90
13998;DHT22;7074;51.508;7.018;2022-08-01T11:22:01;25.00;99.90
13998;DHT22;7074;51.508;7.018;2022-08-01T11:24:54;25.40;99.90
13998;DHT22;7074;51.508;7.018;2022-08-01T11:27:26;25.60;99.90
13998;DHT22;7074;51.508;7.018;2022-08-01T11:30:22;25.50;99.90
13998;DHT22;7074;51.508;7.018;2022-08-01T11:32:53;25.60;99.90
13998;DHT22;7074;51.508;7.018;2022-08-01T11:35:21;25.60;99.90
13998;DHT22;7074;51.508;7.018;2022-08-01T11:37:52;25.60;99.90
13998;DHT22;7074;51.508;7.018;2022-08-01T11:40:23;25.50;99.90
13998;DHT22;7074;51.508;7.018;2022-08-01T11:43:17;25.50;99.90
13998;DHT22;7074;51.508;7.018;2022-08-01T11:45:48;25.30;99.90
13998;DHT22;7074;51.508;7.018;2022-08-01T11:48:21;25.30;99.90
13998;DHT22;7074;51.508;7.018;2022-08-01T11:50:50;25.40;99.90
13998;DHT22;7074;51.508;7.018;2022-08-01T11:53:19;25.50;99.90
13998;DHT22;7074;51.508;7.018;2022-08-01T11:55:47;25.70;99.90
13998;DHT22;7074;51.508;7.018;2022-08-01T11:58:16;25.70;99.90
13998;DHT22;7074;51.508;7.018;2022-08-01T12:00:50;25.80;99.90
13998;DHT22;7074;51.508;7.018;2022-08-01T12:03:23;25.90;99.90
13998;DHT22;7074;51.508;7.018;2022-08-01T12:05:51;26.10;99.90
13998;DHT22;7074;51.508;7.018;2022-08-01T12:08:26;25.70;99.90
13998;DHT22;7074;51.508;7.018;2022-08-01T12:10:53;26.00;99.90
13998;DHT22;7074;51.508;7.018;2022-08-01T12:13:21;26.20;99.90
13998;DHT22;7074;51.508;7.018;2022-08-01T12:15:49;26.10;99.90
13998;DHT22;7074;51.508;7.018;2022-08-01T12:18:16;26.10;99.90
13998;DHT22;7074;51.508;7.018;2022-08-01T12:20:45;26.10;99.90
13998;DHT22;7074;51.508;7.018;2022-08-01T12:23:14;25.50;99.90
13998;DHT22;7074;51.508;7.018;2022-08-01T12:25:43;25.60;99.90
13998;DHT22;7074;51.508;7.018;2022-08-01T12:28:11;26.00;99.90
13998;DHT22;7074;51.508;7.018;2022-08-01T12:30:39;25.80;99.90
13998;DHT22;7074;51.508;7.018;2022-08-01T12:33:09;26.00;99.90
13998;DHT22;7074;51.508;7.018;2022-08-01T12:35:40;26.10;99.90
13998;DHT22;7074;51.508;7.018;2022-08-01T12:38:14;26.40;99.90
13998;DHT22;7074;51.508;7.018;2022-08-01T12:40:44;26.40;99.90
13998;DHT22;7074;51.508;7.018;2022-08-01T12:43:16;26.30;99.90
13998;DHT22;7074;51.508;7.018;2022-08-01T12:45:45;26.00;99.90
13998;DHT22;7074;51.508;7.018;2022-08-01T12:48:13;26.00;99.90
13998;DHT22;7074;51.508;7.018;2022-08-01T12:50:43;25.90;99.90
13998;DHT22;7074;51.508;7.018;2022-08-01T12:53:11;26.00;99.90
13998;DHT22;7074;51.508;7.018;2022-08-01T12:55:45;26.00;99.90
13998;DHT22;7074;51.508;7.018;2022-08-01T12:58:14;26.10;99.90
13998;DHT22;7074;51.508;7.018;2022-08-01T13:00:43;25.90;99.90
13998;DHT22;7074;51.508;7.018;2022-08-01T13:03:13;26.30;99.90
13998;DHT22;7074;51.508;7.018;2022-08-01T13:05:42;26.70;99.90
13998;DHT22;7074;51.508;7.018;2022-08-01T13:08:10;26.50;99.90
13998;DHT22;7074;51.508;7.018;2022-08-01T13:10:38;26.80;99.90
13998;DHT22;7074;51.508;7.018;2022-08-01T13:13:07;27.10;99.90
13998;DHT22;7074;51.508;7.018;2022-08-01T13:15:36;27.10;99.90
13998;DHT22;7074;51.508;7.018;2022-08-01T13:18:23;27.10;99.90
13998;DHT22;7074;51.508;7.018;2022-08-01T13:21:07;27.40;99.90
13998;DHT22;7074;51.508;7.018;2022-08-01T13:23:35;26.70;99.90
13998;DHT22;7074;51.508;7.018;2022-08-01T13:26:03;26.80;99.90
13998;DHT22;7074;51.508;7.018;2022-08-01T13:28:32;26.90;99.90
13998;DHT22;7074;51.508;7.018;2022-08-01T13:31:03;27.00;99.90
13998;DHT22;7074;51.508;7.018;2022-08-01T13:33:41;27.10;99.90
13998;DHT22;7074;51.508;7.018;2022-08-01T13:36:08;27.10;99.90
13998;DHT22;7074;51.508;7.018;2022-08-01T13:38:36;27.10;99.90
13998;DHT22;7074;51.508;7.018;2022-08-01T13:41:21;27.00;99.90
13998;DHT22;7074;51.508;7.018;2022-08-01T13:43:49;27.30;99.90
13998;DHT22;7074;51.508;7.018;2022-08-01T13:46:17;27.10;99.90
13998;DHT22;7074;51.508;7.018;2022-08-01T13:48:44;27.10;99.90
13998;DHT22;7074;51.508;7.018;2022-08-01T13:51:12;27.20;99.90
13998;DHT22;7074;51.508;7.018;2022-08-01T13:53:40;27.30;99.90
13998;DHT22;7074;51.508;7.018;2022-08-01T13:56:07;27.30;99.90
13998;DHT22;7074;51.508;7.018;2022-08-01T13:58:35;27.00;99.90
13998;DHT22;7074;51.508;7.018;2022-08-01T14:01:03;26.90;99.90
13998;DHT22;7074;51.508;7.018;2022-08-01T14:03:30;27.00;99.90
13998;DHT22;7074;51.508;7.018;2022-08-01T14:05:58;26.90;99.90
13998;DHT22;7074;51.508;7.018;2022-08-01T14:08:25;26.80;99.90
13998;DHT22;7074;51.508;7.018;2022-08-01T14:10:53;26.60;99.90
13998;DHT22;7074;51.508;7.018;2022-08-01T14:13:23;26.60;99.90
13998;DHT22;7074;51.508;7.018;2022-08-01T14:15:50;26.80;99.90
13998;DHT22;7074;51.508;7.018;2022-08-01T14:18:19;26.60;99.90
13998;DHT22;7074;51.508;7.018;2022-08-01T14:20:46;26.40;99.90
13998;DHT22;7074;51.508;7.018;2022-08-01T14:23:14;26.20;99.90
13998;DHT22;7074;51.508;7.018;2022-08-01T14:25:41;26.20;99.90
13998;DHT22;7074;51.508;7.018;2022-08-01T14:28:09;25.90;99.90
13998;DHT22;7074;51.508;7.018;2022-08-01T14:30:36;26.00;99.90
13998;DHT22;7074;51.508;7.018;2022-08-01T14:33:04;26.50;99.90
13998;DHT22;7074;51.508;7.018;2022-08-01T14:35:33;26.70;99.90
13998;DHT22;7074;51.508;7.018;2022-08-01T14:38:00;26.60;99.90
13998;DHT22;7074;51.508;7.018;2022-08-01T14:40:27;26.40;99.90
13998;DHT22;7074;51.508;7.018;2022-08-01T14:42:55;26.60;99.90
13998;DHT22;7074;51.508;7.018;2022-08-01T14:45:22;26.40;99.90
13998;DHT22;7074;51.508;7.018;2022-08-01T14:47:49;26.50;99.90
13998;DHT22;7074;51.508;7.018;2022-08-01T14:50:16;26.70;99.90
13998;DHT22;7074;51.508;7.018;2022-08-01T14:52:45;26.70;99.90
13998;DHT22;7074;51.508;7.018;2022-08-01T14:55:13;26.50;99.90
13998;DHT22;7074;51.508;7.018;2022-08-01T14:57:40;26.50;99.90
13998;DHT22;7074;51.508;7.018;2022-08-01T15:00:10;26.30;99.90
13998;DHT22;7074;51.508;7.018;2022-08-01T15:02:38;26.50;99.90
13998;DHT22;7074;51.508;7.018;2022-08-01T15:05:06;26.60;99.90
13998;DHT22;7074;51.508;7.018;2022-08-01T15:07:34;26.40;99.90
13998;DHT22;7074;51.508;7.018;2022-08-01T15:10:04;26.30;99.90
13998;DHT22;7074;51.508;7.018;2022-08-01T15:12:32;26.30;99.90
13998;DHT22;7074;51.508;7.018;2022-08-01T15:14:59;26.40;99.90
13998;DHT22;7074;51.508;7.018;2022-08-01T15:17:28;26.50;99.90
13998;DHT22;7074;51.508;7.018;2022-08-01T15:19:58;26.00;99.90
13998;DHT22;7074;51.508;7.018;2022-08-01T15:22:27;26.10;99.90
13998;DHT22;7074;51.508;7.018;2022-08-01T15:24:56;25.80;99.90
13998;DHT22;7074;51.508;7.018;2022-08-01T15:27:25;26.10;99.90
13998;DHT22;7074;51.508;7.018;2022-08-01T15:29:53;26.30;99.90
13998;DHT22;7074;51.508;7.018;2022-08-01T15:32:21;26.50;99.90
13998;DHT22;7074;51.508;7.018;2022-08-01T15:34:49;26.80;99.90
13998;DHT22;7074;51.508;7.018;2022-08-01T15:37:16;26.90;99.90
13998;DHT22;7074;51.508;7.018;2022-08-01T15:39:44;26.70;99.90
13998;DHT22;7074;51.508;7.018;2022-08-01T15:42:14;26.70;99.90
13998;DHT22;7074;51.508;7.018;2022-08-01T15:44:43;26.50;99.90
13998;DHT22;7074;51.508;7.018;2022-08-01T15:47:11;26.40;99.90
13998;DHT22;7074;51.508;7.018;2022-08-01T15:49:39;26.40;99.90
13998;DHT22;7074;51.508;7.018;2022-08-01T15:52:07;26.50;99.90
13998;DHT22;7074;51.508;7.018;2022-08-01T15:54:35;26.40;99.90
13998;DHT22;7074;51.508;7.018;2022-08-01T15:57:02;26.20;99.90
13998;DHT22;7074;51.508;7.018;2022-08-01T15:59:29;26.30;99.90
13998;DHT22;7074;51.508;7.018;2022-08-01T16:01:58;26.30;99.90